Solitude, Utah
Current Conditions -  °F | °C
As of 8:53 PM on Wednesday 22 Oct 2014 (Local Time) from KSLC Reporting Station
Scattered Clouds Scattered Clouds  
Wind Chill: 51°   Ceiling: Unl
Heat Index: 51°   Visibility: 10mi
Dew Point: 35°   Wind: 0mph
Humidity: 54%   Direction: NA
Pressure: 30.17"   Gusts: NA
Location:  40.6239°N, 111.817°W
Report Text: KSLC 230253Z 00000KT 10SM SCT210 11/02 A3017 RMK AO2 SLP205 T01060017 51009
Loading
Personal Weather Stations






























Interactive Weather Map
Tropical Storm Tracking
New forecast layout! Learn more

10-Day Weather Forecast

Advertisements
Track Severe Weather on mobile